sensor_id;sensor_type;location;lat;lon;timestamp;P1;durP1;ratioP1;P2;durP2;ratioP2
29370;SDS011;16357;52.188;7.838;2023-07-22T00:01:26;5.90;;;4.70;;
29370;SDS011;16357;52.188;7.838;2023-07-22T00:03:53;7.22;;;5.65;;
29370;SDS011;16357;52.188;7.838;2023-07-22T00:06:20;6.78;;;5.28;;
29370;SDS011;16357;52.188;7.838;2023-07-22T00:08:46;7.78;;;6.00;;
29370;SDS011;16357;52.188;7.838;2023-07-22T00:11:13;9.95;;;6.45;;
29370;SDS011;16357;52.188;7.838;2023-07-22T00:13:39;9.32;;;6.28;;
29370;SDS011;16357;52.188;7.838;2023-07-22T00:16:06;8.45;;;6.40;;
29370;SDS011;16357;52.188;7.838;2023-07-22T00:18:34;9.32;;;6.85;;
29370;SDS011;16357;52.188;7.838;2023-07-22T00:21:00;10.45;;;7.28;;
29370;SDS011;16357;52.188;7.838;2023-07-22T00:23:27;10.45;;;6.63;;
29370;SDS011;16357;52.188;7.838;2023-07-22T00:25:53;8.52;;;6.95;;
29370;SDS011;16357;52.188;7.838;2023-07-22T00:28:20;9.15;;;6.40;;
29370;SDS011;16357;52.188;7.838;2023-07-22T00:30:46;11.15;;;6.80;;
29370;SDS011;16357;52.188;7.838;2023-07-22T00:33:15;9.68;;;6.80;;
29370;SDS011;16357;52.188;7.838;2023-07-22T00:35:42;8.40;;;5.82;;
29370;SDS011;16357;52.188;7.838;2023-07-22T00:38:09;8.30;;;6.32;;
29370;SDS011;16357;52.188;7.838;2023-07-22T00:40:36;7.55;;;5.95;;
29370;SDS011;16357;52.188;7.838;2023-07-22T00:43:03;7.72;;;5.80;;
29370;SDS011;16357;52.188;7.838;2023-07-22T00:45:31;8.13;;;6.35;;
29370;SDS011;16357;52.188;7.838;2023-07-22T00:47:57;7.75;;;6.13;;
29370;SDS011;16357;52.188;7.838;2023-07-22T00:50:24;8.13;;;6.05;;
29370;SDS011;16357;52.188;7.838;2023-07-22T00:52:52;10.35;;;5.97;;
29370;SDS011;16357;52.188;7.838;2023-07-22T00:55:18;9.95;;;6.45;;
29370;SDS011;16357;52.188;7.838;2023-07-22T00:57:45;8.35;;;6.03;;
29370;SDS011;16357;52.188;7.838;2023-07-22T01:00:12;10.20;;;6.18;;
29370;SDS011;16357;52.188;7.838;2023-07-22T01:02:39;9.93;;;7.00;;
29370;SDS011;16357;52.188;7.838;2023-07-22T01:05:07;11.05;;;6.45;;
29370;SDS011;16357;52.188;7.838;2023-07-22T01:07:36;9.93;;;6.30;;
29370;SDS011;16357;52.188;7.838;2023-07-22T01:10:05;9.70;;;6.85;;
29370;SDS011;16357;52.188;7.838;2023-07-22T01:12:32;9.32;;;6.90;;
29370;SDS011;16357;52.188;7.838;2023-07-22T01:14:59;11.18;;;8.07;;
29370;SDS011;16357;52.188;7.838;2023-07-22T01:17:26;8.80;;;6.70;;
29370;SDS011;16357;52.188;7.838;2023-07-22T01:19:55;8.27;;;6.40;;
29370;SDS011;16357;52.188;7.838;2023-07-22T01:22:22;8.65;;;6.55;;
29370;SDS011;16357;52.188;7.838;2023-07-22T01:24:50;10.15;;;6.47;;
29370;SDS011;16357;52.188;7.838;2023-07-22T01:27:17;8.50;;;6.60;;
29370;SDS011;16357;52.188;7.838;2023-07-22T01:29:43;9.18;;;6.63;;
29370;SDS011;16357;52.188;7.838;2023-07-22T01:32:10;9.65;;;6.82;;
29370;SDS011;16357;52.188;7.838;2023-07-22T01:34:37;9.38;;;6.88;;
29370;SDS011;16357;52.188;7.838;2023-07-22T01:37:03;10.60;;;7.05;;
29370;SDS011;16357;52.188;7.838;2023-07-22T01:39:30;12.65;;;7.78;;
29370;SDS011;16357;52.188;7.838;2023-07-22T01:41:57;12.77;;;7.00;;
29370;SDS011;16357;52.188;7.838;2023-07-22T01:44:24;10.38;;;7.18;;
29370;SDS011;16357;52.188;7.838;2023-07-22T01:46:50;9.38;;;6.95;;
29370;SDS011;16357;52.188;7.838;2023-07-22T01:49:17;11.68;;;7.68;;
29370;SDS011;16357;52.188;7.838;2023-07-22T01:51:43;9.90;;;7.18;;
29370;SDS011;16357;52.188;7.838;2023-07-22T01:54:10;11.93;;;7.65;;
29370;SDS011;16357;52.188;7.838;2023-07-22T01:56:37;10.57;;;7.55;;
29370;SDS011;16357;52.188;7.838;2023-07-22T01:59:03;11.65;;;7.93;;
29370;SDS011;16357;52.188;7.838;2023-07-22T02:01:31;8.60;;;7.00;;
29370;SDS011;16357;52.188;7.838;2023-07-22T02:03:59;10.35;;;6.93;;
29370;SDS011;16357;52.188;7.838;2023-07-22T02:06:26;11.57;;;8.00;;
29370;SDS011;16357;52.188;7.838;2023-07-22T02:08:54;9.93;;;6.97;;
29370;SDS011;16357;52.188;7.838;2023-07-22T02:11:20;10.23;;;7.53;;
29370;SDS011;16357;52.188;7.838;2023-07-22T02:13:47;10.73;;;6.75;;
29370;SDS011;16357;52.188;7.838;2023-07-22T02:16:13;10.88;;;7.63;;
29370;SDS011;16357;52.188;7.838;2023-07-22T02:18:40;12.98;;;6.88;;
29370;SDS011;16357;52.188;7.838;2023-07-22T02:21:07;10.20;;;6.75;;
29370;SDS011;16357;52.188;7.838;2023-07-22T02:23:33;10.95;;;7.30;;
29370;SDS011;16357;52.188;7.838;2023-07-22T02:26:00;8.70;;;6.28;;
29370;SDS011;16357;52.188;7.838;2023-07-22T02:28:27;7.75;;;6.38;;
29370;SDS011;16357;52.188;7.838;2023-07-22T02:30:54;10.82;;;7.18;;
29370;SDS011;16357;52.188;7.838;2023-07-22T02:33:20;10.15;;;6.65;;
29370;SDS011;16357;52.188;7.838;2023-07-22T02:35:48;10.40;;;7.03;;
29370;SDS011;16357;52.188;7.838;2023-07-22T02:38:15;10.52;;;7.00;;
29370;SDS011;16357;52.188;7.838;2023-07-22T02:40:41;10.93;;;7.00;;
29370;SDS011;16357;52.188;7.838;2023-07-22T02:43:09;10.27;;;7.18;;
29370;SDS011;16357;52.188;7.838;2023-07-22T02:45:36;10.65;;;6.68;;
29370;SDS011;16357;52.188;7.838;2023-07-22T02:48:03;10.45;;;7.07;;
29370;SDS011;16357;52.188;7.838;2023-07-22T02:50:30;9.43;;;6.88;;
29370;SDS011;16357;52.188;7.838;2023-07-22T02:52:57;10.27;;;6.90;;
29370;SDS011;16357;52.188;7.838;2023-07-22T02:55:23;11.20;;;6.90;;
29370;SDS011;16357;52.188;7.838;2023-07-22T02:57:50;11.98;;;7.07;;
29370;SDS011;16357;52.188;7.838;2023-07-22T03:00:18;13.20;;;8.07;;
29370;SDS011;16357;52.188;7.838;2023-07-22T03:02:52;11.75;;;7.18;;
29370;SDS011;16357;52.188;7.838;2023-07-22T03:05:20;10.98;;;6.82;;
29370;SDS011;16357;52.188;7.838;2023-07-22T03:07:47;10.13;;;7.30;;
29370;SDS011;16357;52.188;7.838;2023-07-22T03:10:14;8.88;;;6.60;;
29370;SDS011;16357;52.188;7.838;2023-07-22T03:12:40;10.82;;;7.35;;
29370;SDS011;16357;52.188;7.838;2023-07-22T03:15:07;10.35;;;6.63;;
29370;SDS011;16357;52.188;7.838;2023-07-22T03:17:35;10.77;;;6.90;;
29370;SDS011;16357;52.188;7.838;2023-07-22T03:20:03;9.27;;;6.88;;
29370;SDS011;16357;52.188;7.838;2023-07-22T03:22:36;13.90;;;6.90;;
29370;SDS011;16357;52.188;7.838;2023-07-22T03:25:03;9.80;;;7.15;;
29370;SDS011;16357;52.188;7.838;2023-07-22T03:27:31;11.00;;;6.88;;
29370;SDS011;16357;52.188;7.838;2023-07-22T03:29:58;10.65;;;7.10;;
29370;SDS011;16357;52.188;7.838;2023-07-22T03:32:24;10.98;;;7.35;;
29370;SDS011;16357;52.188;7.838;2023-07-22T03:34:51;10.38;;;6.70;;
29370;SDS011;16357;52.188;7.838;2023-07-22T03:37:18;10.43;;;7.18;;
29370;SDS011;16357;52.188;7.838;2023-07-22T03:39:46;9.52;;;6.65;;
29370;SDS011;16357;52.188;7.838;2023-07-22T03:42:12;9.05;;;6.57;;
29370;SDS011;16357;52.188;7.838;2023-07-22T03:44:39;10.00;;;6.70;;
29370;SDS011;16357;52.188;7.838;2023-07-22T03:47:07;10.05;;;7.30;;
29370;SDS011;16357;52.188;7.838;2023-07-22T03:49:33;10.75;;;6.90;;
29370;SDS011;16357;52.188;7.838;2023-07-22T03:52:00;11.27;;;6.07;;
29370;SDS011;16357;52.188;7.838;2023-07-22T03:54:26;10.57;;;6.97;;
29370;SDS011;16357;52.188;7.838;2023-07-22T03:56:53;9.75;;;6.70;;
29370;SDS011;16357;52.188;7.838;2023-07-22T03:59:19;10.75;;;7.30;;
29370;SDS011;16357;52.188;7.838;2023-07-22T04:01:46;12.55;;;6.65;;
29370;SDS011;16357;52.188;7.838;2023-07-22T04:04:13;11.85;;;6.65;;
29370;SDS011;16357;52.188;7.838;2023-07-22T04:06:40;10.32;;;7.30;;
29370;SDS011;16357;52.188;7.838;2023-07-22T04:09:07;11.55;;;7.15;;
29370;SDS011;16357;52.188;7.838;2023-07-22T04:11:33;9.82;;;7.28;;
29370;SDS011;16357;52.188;7.838;2023-07-22T04:14:00;10.60;;;7.45;;
29370;SDS011;16357;52.188;7.838;2023-07-22T04:16:26;14.43;;;7.47;;
29370;SDS011;16357;52.188;7.838;2023-07-22T04:18:53;12.30;;;7.68;;
29370;SDS011;16357;52.188;7.838;2023-07-22T04:21:20;12.13;;;7.35;;
29370;SDS011;16357;52.188;7.838;2023-07-22T04:23:46;12.25;;;7.30;;
29370;SDS011;16357;52.188;7.838;2023-07-22T04:26:13;15.57;;;7.55;;
29370;SDS011;16357;52.188;7.838;2023-07-22T04:28:39;11.23;;;7.60;;
29370;SDS011;16357;52.188;7.838;2023-07-22T04:31:06;13.35;;;8.48;;
29370;SDS011;16357;52.188;7.838;2023-07-22T04:33:32;15.15;;;8.35;;
29370;SDS011;16357;52.188;7.838;2023-07-22T04:35:59;11.13;;;7.40;;
29370;SDS011;16357;52.188;7.838;2023-07-22T04:38:27;10.38;;;7.60;;
29370;SDS011;16357;52.188;7.838;2023-07-22T04:40:54;11.52;;;7.15;;
29370;SDS011;16357;52.188;7.838;2023-07-22T04:43:20;14.15;;;7.85;;
29370;SDS011;16357;52.188;7.838;2023-07-22T04:45:48;12.20;;;7.57;;
29370;SDS011;16357;52.188;7.838;2023-07-22T04:48:15;10.23;;;7.15;;
29370;SDS011;16357;52.188;7.838;2023-07-22T04:50:42;13.88;;;8.43;;
29370;SDS011;16357;52.188;7.838;2023-07-22T04:53:11;15.48;;;8.68;;
29370;SDS011;16357;52.188;7.838;2023-07-22T04:55:41;13.30;;;8.85;;
29370;SDS011;16357;52.188;7.838;2023-07-22T04:58:08;15.25;;;9.25;;
29370;SDS011;16357;52.188;7.838;2023-07-22T05:00:37;17.02;;;9.32;;
29370;SDS011;16357;52.188;7.838;2023-07-22T05:03:04;15.05;;;8.70;;
29370;SDS011;16357;52.188;7.838;2023-07-22T05:05:31;10.80;;;8.20;;
29370;SDS011;16357;52.188;7.838;2023-07-22T05:07:58;13.13;;;8.48;;
29370;SDS011;16357;52.188;7.838;2023-07-22T05:10:24;14.73;;;9.32;;
29370;SDS011;16357;52.188;7.838;2023-07-22T05:12:51;14.00;;;8.80;;
29370;SDS011;16357;52.188;7.838;2023-07-22T05:15:17;16.63;;;9.55;;
29370;SDS011;16357;52.188;7.838;2023-07-22T05:17:44;14.38;;;9.23;;
29370;SDS011;16357;52.188;7.838;2023-07-22T05:20:11;12.57;;;9.30;;
29370;SDS011;16357;52.188;7.838;2023-07-22T05:22:39;13.70;;;8.70;;
29370;SDS011;16357;52.188;7.838;2023-07-22T05:25:07;11.88;;;8.90;;
29370;SDS011;16357;52.188;7.838;2023-07-22T05:27:34;13.77;;;8.45;;
29370;SDS011;16357;52.188;7.838;2023-07-22T05:30:00;12.75;;;9.00;;
29370;SDS011;16357;52.188;7.838;2023-07-22T05:32:30;13.30;;;9.40;;
29370;SDS011;16357;52.188;7.838;2023-07-22T05:34:59;16.70;;;9.73;;
29370;SDS011;16357;52.188;7.838;2023-07-22T05:37:27;13.57;;;9.30;;
29370;SDS011;16357;52.188;7.838;2023-07-22T05:39:54;13.25;;;9.23;;
29370;SDS011;16357;52.188;7.838;2023-07-22T05:42:20;13.68;;;8.98;;
29370;SDS011;16357;52.188;7.838;2023-07-22T05:44:47;13.20;;;8.60;;
29370;SDS011;16357;52.188;7.838;2023-07-22T05:47:14;10.63;;;8.15;;
29370;SDS011;16357;52.188;7.838;2023-07-22T05:49:44;13.60;;;9.45;;
29370;SDS011;16357;52.188;7.838;2023-07-22T05:52:10;13.32;;;9.23;;
29370;SDS011;16357;52.188;7.838;2023-07-22T05:54:37;13.65;;;8.88;;
29370;SDS011;16357;52.188;7.838;2023-07-22T05:57:03;16.05;;;8.85;;
29370;SDS011;16357;52.188;7.838;2023-07-22T05:59:31;13.25;;;8.52;;
29370;SDS011;16357;52.188;7.838;2023-07-22T06:01:58;13.18;;;8.95;;
29370;SDS011;16357;52.188;7.838;2023-07-22T06:04:25;14.68;;;9.00;;
29370;SDS011;16357;52.188;7.838;2023-07-22T06:06:51;14.02;;;9.18;;
29370;SDS011;16357;52.188;7.838;2023-07-22T06:09:18;12.68;;;9.02;;
29370;SDS011;16357;52.188;7.838;2023-07-22T06:11:44;12.63;;;8.85;;
29370;SDS011;16357;52.188;7.838;2023-07-22T06:14:11;12.70;;;9.00;;
29370;SDS011;16357;52.188;7.838;2023-07-22T06:16:38;13.55;;;8.98;;
29370;SDS011;16357;52.188;7.838;2023-07-22T06:19:05;13.82;;;9.10;;
29370;SDS011;16357;52.188;7.838;2023-07-22T06:21:31;13.25;;;9.00;;
29370;SDS011;16357;52.188;7.838;2023-07-22T06:23:58;14.20;;;9.40;;
29370;SDS011;16357;52.188;7.838;2023-07-22T06:26:24;13.43;;;9.65;;
29370;SDS011;16357;52.188;7.838;2023-07-22T06:28:51;14.48;;;9.55;;
29370;SDS011;16357;52.188;7.838;2023-07-22T06:31:18;16.38;;;9.57;;
29370;SDS011;16357;52.188;7.838;2023-07-22T06:33:44;14.02;;;9.65;;
29370;SDS011;16357;52.188;7.838;2023-07-22T06:36:11;14.77;;;9.90;;
29370;SDS011;16357;52.188;7.838;2023-07-22T06:38:37;15.73;;;10.18;;
29370;SDS011;16357;52.188;7.838;2023-07-22T06:41:04;11.80;;;9.32;;
29370;SDS011;16357;52.188;7.838;2023-07-22T06:43:30;12.60;;;8.68;;
29370;SDS011;16357;52.188;7.838;2023-07-22T06:45:57;15.75;;;9.88;;
29370;SDS011;16357;52.188;7.838;2023-07-22T06:48:23;15.30;;;9.27;;
29370;SDS011;16357;52.188;7.838;2023-07-22T06:50:50;14.65;;;9.90;;
29370;SDS011;16357;52.188;7.838;2023-07-22T06:53:16;14.52;;;10.05;;
29370;SDS011;16357;52.188;7.838;2023-07-22T06:55:49;14.98;;;10.45;;
29370;SDS011;16357;52.188;7.838;2023-07-22T06:58:18;15.75;;;11.15;;
29370;SDS011;16357;52.188;7.838;2023-07-22T07:00:45;17.30;;;12.10;;
29370;SDS011;16357;52.188;7.838;2023-07-22T07:03:12;20.33;;;12.38;;
29370;SDS011;16357;52.188;7.838;2023-07-22T07:05:38;17.73;;;11.18;;
29370;SDS011;16357;52.188;7.838;2023-07-22T07:08:08;19.10;;;13.02;;
29370;SDS011;16357;52.188;7.838;2023-07-22T07:10:37;17.65;;;12.13;;
29370;SDS011;16357;52.188;7.838;2023-07-22T07:13:05;18.65;;;12.80;;
29370;SDS011;16357;52.188;7.838;2023-07-22T07:15:31;20.10;;;12.88;;
29370;SDS011;16357;52.188;7.838;2023-07-22T07:17:58;15.90;;;11.75;;
29370;SDS011;16357;52.188;7.838;2023-07-22T07:20:24;17.88;;;12.18;;
29370;SDS011;16357;52.188;7.838;2023-07-22T07:22:51;17.08;;;12.18;;
29370;SDS011;16357;52.188;7.838;2023-07-22T07:25:17;20.20;;;12.85;;
29370;SDS011;16357;52.188;7.838;2023-07-22T07:27:43;18.55;;;11.95;;
29370;SDS011;16357;52.188;7.838;2023-07-22T07:30:10;18.40;;;12.85;;
29370;SDS011;16357;52.188;7.838;2023-07-22T07:32:37;16.92;;;12.13;;
29370;SDS011;16357;52.188;7.838;2023-07-22T07:35:03;16.75;;;12.40;;
29370;SDS011;16357;52.188;7.838;2023-07-22T07:37:31;18.10;;;13.18;;
29370;SDS011;16357;52.188;7.838;2023-07-22T07:39:58;19.80;;;13.43;;
29370;SDS011;16357;52.188;7.838;2023-07-22T07:42:26;17.58;;;11.45;;
29370;SDS011;16357;52.188;7.838;2023-07-22T07:44:54;15.07;;;11.30;;
29370;SDS011;16357;52.188;7.838;2023-07-22T07:47:20;20.52;;;12.73;;
29370;SDS011;16357;52.188;7.838;2023-07-22T07:49:47;15.88;;;11.80;;
29370;SDS011;16357;52.188;7.838;2023-07-22T07:52:14;16.15;;;12.05;;
29370;SDS011;16357;52.188;7.838;2023-07-22T07:54:40;15.05;;;11.20;;
29370;SDS011;16357;52.188;7.838;2023-07-22T07:57:07;18.45;;;11.80;;
29370;SDS011;16357;52.188;7.838;2023-07-22T07:59:33;16.73;;;11.70;;
29370;SDS011;16357;52.188;7.838;2023-07-22T08:02:02;16.35;;;11.32;;
29370;SDS011;16357;52.188;7.838;2023-07-22T08:04:35;14.00;;;10.50;;
29370;SDS011;16357;52.188;7.838;2023-07-22T08:07:01;15.95;;;10.60;;
29370;SDS011;16357;52.188;7.838;2023-07-22T08:09:30;14.98;;;11.00;;
29370;SDS011;16357;52.188;7.838;2023-07-22T08:11:57;16.17;;;10.50;;
29370;SDS011;16357;52.188;7.838;2023-07-22T08:14:23;13.98;;;9.85;;
29370;SDS011;16357;52.188;7.838;2023-07-22T08:16:50;11.65;;;8.63;;
29370;SDS011;16357;52.188;7.838;2023-07-22T08:19:17;10.68;;;8.00;;
29370;SDS011;16357;52.188;7.838;2023-07-22T08:21:43;11.10;;;8.93;;
29370;SDS011;16357;52.188;7.838;2023-07-22T08:24:10;13.82;;;8.77;;
29370;SDS011;16357;52.188;7.838;2023-07-22T08:26:36;12.10;;;8.65;;
29370;SDS011;16357;52.188;7.838;2023-07-22T08:29:03;11.20;;;7.50;;
29370;SDS011;16357;52.188;7.838;2023-07-22T08:31:29;10.40;;;7.47;;
29370;SDS011;16357;52.188;7.838;2023-07-22T08:33:56;10.95;;;7.60;;
29370;SDS011;16357;52.188;7.838;2023-07-22T08:36:23;11.63;;;7.80;;
29370;SDS011;16357;52.188;7.838;2023-07-22T08:38:49;9.80;;;7.40;;
29370;SDS011;16357;52.188;7.838;2023-07-22T08:41:16;12.05;;;7.25;;
29370;SDS011;16357;52.188;7.838;2023-07-22T08:43:42;10.48;;;7.28;;
29370;SDS011;16357;52.188;7.838;2023-07-22T08:46:14;10.07;;;6.95;;
29370;SDS011;16357;52.188;7.838;2023-07-22T08:48:42;9.00;;;7.32;;
29370;SDS011;16357;52.188;7.838;2023-07-22T08:51:15;9.23;;;6.90;;
29370;SDS011;16357;52.188;7.838;2023-07-22T08:53:45;11.27;;;6.93;;
29370;SDS011;16357;52.188;7.838;2023-07-22T08:56:25;10.13;;;7.13;;
29370;SDS011;16357;52.188;7.838;2023-07-22T08:58:53;10.68;;;7.03;;
29370;SDS011;16357;52.188;7.838;2023-07-22T09:01:21;10.23;;;7.15;;
29370;SDS011;16357;52.188;7.838;2023-07-22T09:03:49;10.82;;;7.47;;
29370;SDS011;16357;52.188;7.838;2023-07-22T09:06:19;9.32;;;6.75;;
29370;SDS011;16357;52.188;7.838;2023-07-22T09:08:46;10.00;;;7.60;;
29370;SDS011;16357;52.188;7.838;2023-07-22T09:11:13;10.32;;;7.13;;
29370;SDS011;16357;52.188;7.838;2023-07-22T09:13:39;11.30;;;7.82;;
29370;SDS011;16357;52.188;7.838;2023-07-22T09:16:10;9.10;;;6.65;;
29370;SDS011;16357;52.188;7.838;2023-07-22T09:18:37;11.63;;;6.97;;
29370;SDS011;16357;52.188;7.838;2023-07-22T09:21:04;9.95;;;7.00;;
29370;SDS011;16357;52.188;7.838;2023-07-22T09:23:34;10.35;;;6.00;;
29370;SDS011;16357;52.188;7.838;2023-07-22T09:26:08;7.70;;;5.43;;
29370;SDS011;16357;52.188;7.838;2023-07-22T09:28:55;7.78;;;5.82;;
29370;SDS011;16357;52.188;7.838;2023-07-22T09:31:22;9.70;;;5.97;;
29370;SDS011;16357;52.188;7.838;2023-07-22T09:33:54;8.15;;;6.30;;
29370;SDS011;16357;52.188;7.838;2023-07-22T09:36:21;11.15;;;7.32;;
29370;SDS011;16357;52.188;7.838;2023-07-22T09:39:00;13.77;;;7.88;;
29370;SDS011;16357;52.188;7.838;2023-07-22T09:41:30;11.38;;;7.80;;
29370;SDS011;16357;52.188;7.838;2023-07-22T09:43:57;10.07;;;7.32;;
29370;SDS011;16357;52.188;7.838;2023-07-22T09:46:31;9.15;;;6.47;;
29370;SDS011;16357;52.188;7.838;2023-07-22T09:49:02;10.20;;;6.90;;
29370;SDS011;16357;52.188;7.838;2023-07-22T09:51:33;11.57;;;7.60;;
29370;SDS011;16357;52.188;7.838;2023-07-22T09:54:22;10.70;;;6.97;;
29370;SDS011;16357;52.188;7.838;2023-07-22T09:56:49;12.50;;;7.90;;
29370;SDS011;16357;52.188;7.838;2023-07-22T09:59:19;11.52;;;7.70;;
29370;SDS011;16357;52.188;7.838;2023-07-22T10:01:48;10.18;;;6.45;;
29370;SDS011;16357;52.188;7.838;2023-07-22T10:04:17;12.07;;;6.82;;
29370;SDS011;16357;52.188;7.838;2023-07-22T10:06:47;9.20;;;6.15;;
29370;SDS011;16357;52.188;7.838;2023-07-22T10:09:15;8.73;;;6.18;;
29370;SDS011;16357;52.188;7.838;2023-07-22T10:11:43;8.75;;;6.07;;
29370;SDS011;16357;52.188;7.838;2023-07-22T10:14:10;12.65;;;6.45;;
29370;SDS011;16357;52.188;7.838;2023-07-22T10:16:38;9.68;;;6.57;;
29370;SDS011;16357;52.188;7.838;2023-07-22T10:19:05;8.52;;;6.13;;
29370;SDS011;16357;52.188;7.838;2023-07-22T10:21:34;8.93;;;6.00;;
29370;SDS011;16357;52.188;7.838;2023-07-22T10:24:02;8.43;;;5.55;;
29370;SDS011;16357;52.188;7.838;2023-07-22T10:26:29;8.38;;;5.82;;
29370;SDS011;16357;52.188;7.838;2023-07-22T10:29:13;7.47;;;5.90;;
29370;SDS011;16357;52.188;7.838;2023-07-22T10:31:39;6.88;;;5.40;;
29370;SDS011;16357;52.188;7.838;2023-07-22T10:34:06;9.88;;;6.15;;
29370;SDS011;16357;52.188;7.838;2023-07-22T10:36:33;8.00;;;6.10;;
29370;SDS011;16357;52.188;7.838;2023-07-22T10:38:59;7.68;;;5.82;;
29370;SDS011;16357;52.188;7.838;2023-07-22T10:41:29;10.55;;;6.22;;
29370;SDS011;16357;52.188;7.838;2023-07-22T10:43:57;8.82;;;6.38;;
29370;SDS011;16357;52.188;7.838;2023-07-22T10:46:35;7.80;;;5.50;;
29370;SDS011;16357;52.188;7.838;2023-07-22T10:49:11;8.55;;;6.13;;
29370;SDS011;16357;52.188;7.838;2023-07-22T10:51:49;7.95;;;5.85;;
29370;SDS011;16357;52.188;7.838;2023-07-22T10:54:33;8.20;;;6.13;;
29370;SDS011;16357;52.188;7.838;2023-07-22T10:57:02;9.90;;;5.97;;
29370;SDS011;16357;52.188;7.838;2023-07-22T10:59:32;8.60;;;5.57;;
29370;SDS011;16357;52.188;7.838;2023-07-22T11:02:03;8.70;;;5.95;;
29370;SDS011;16357;52.188;7.838;2023-07-22T11:04:33;8.50;;;5.93;;
29370;SDS011;16357;52.188;7.838;2023-07-22T11:07:30;8.82;;;5.72;;
29370;SDS011;16357;52.188;7.838;2023-07-22T11:09:57;8.82;;;6.13;;
29370;SDS011;16357;52.188;7.838;2023-07-22T11:12:24;9.60;;;5.93;;
29370;SDS011;16357;52.188;7.838;2023-07-22T11:14:52;10.85;;;5.97;;
29370;SDS011;16357;52.188;7.838;2023-07-22T11:17:28;7.60;;;5.75;;
29370;SDS011;16357;52.188;7.838;2023-07-22T11:19:59;8.02;;;5.90;;
29370;SDS011;16357;52.188;7.838;2023-07-22T11:22:27;7.57;;;5.47;;
29370;SDS011;16357;52.188;7.838;2023-07-22T11:24:56;5.45;;;4.68;;
29370;SDS011;16357;52.188;7.838;2023-07-22T11:27:26;6.20;;;4.32;;
29370;SDS011;16357;52.188;7.838;2023-07-22T11:29:52;5.88;;;4.72;;
29370;SDS011;16357;52.188;7.838;2023-07-22T11:32:19;5.82;;;4.38;;
29370;SDS011;16357;52.188;7.838;2023-07-22T11:34:52;7.35;;;5.10;;
29370;SDS011;16357;52.188;7.838;2023-07-22T11:37:19;7.95;;;5.00;;
29370;SDS011;16357;52.188;7.838;2023-07-22T11:39:46;7.70;;;5.15;;
29370;SDS011;16357;52.188;7.838;2023-07-22T11:42:12;7.30;;;5.07;;
29370;SDS011;16357;52.188;7.838;2023-07-22T11:44:39;8.15;;;4.43;;
29370;SDS011;16357;52.188;7.838;2023-07-22T11:47:06;6.10;;;4.55;;
29370;SDS011;16357;52.188;7.838;2023-07-22T11:49:37;15.60;;;4.80;;
29370;SDS011;16357;52.188;7.838;2023-07-22T11:52:09;6.20;;;4.55;;
29370;SDS011;16357;52.188;7.838;2023-07-22T11:54:40;7.55;;;4.28;;
29370;SDS011;16357;52.188;7.838;2023-07-22T11:59:38;5.22;;;3.78;;
29370;SDS011;16357;52.188;7.838;2023-07-22T12:02:12;6.00;;;4.57;;
29370;SDS011;16357;52.188;7.838;2023-07-22T12:04:39;6.93;;;4.07;;
29370;SDS011;16357;52.188;7.838;2023-07-22T12:07:06;4.32;;;3.88;;
29370;SDS011;16357;52.188;7.838;2023-07-22T12:09:32;5.10;;;4.05;;
29370;SDS011;16357;52.188;7.838;2023-07-22T12:11:59;6.15;;;3.95;;
29370;SDS011;16357;52.188;7.838;2023-07-22T12:14:32;5.38;;;3.83;;
29370;SDS011;16357;52.188;7.838;2023-07-22T12:17:03;6.25;;;4.00;;
29370;SDS011;16357;52.188;7.838;2023-07-22T12:19:35;6.38;;;4.13;;
29370;SDS011;16357;52.188;7.838;2023-07-22T12:22:01;5.00;;;3.60;;
29370;SDS011;16357;52.188;7.838;2023-07-22T12:24:28;4.45;;;3.83;;
29370;SDS011;16357;52.188;7.838;2023-07-22T12:26:56;5.40;;;3.97;;
29370;SDS011;16357;52.188;7.838;2023-07-22T12:29:22;5.03;;;3.75;;
29370;SDS011;16357;52.188;7.838;2023-07-22T12:31:49;4.60;;;3.55;;
29370;SDS011;16357;52.188;7.838;2023-07-22T12:34:16;6.38;;;3.72;;
29370;SDS011;16357;52.188;7.838;2023-07-22T12:36:43;4.75;;;3.33;;
29370;SDS011;16357;52.188;7.838;2023-07-22T12:39:09;4.25;;;3.38;;
29370;SDS011;16357;52.188;7.838;2023-07-22T12:41:37;4.57;;;3.22;;
29370;SDS011;16357;52.188;7.838;2023-07-22T12:44:03;5.45;;;3.33;;
29370;SDS011;16357;52.188;7.838;2023-07-22T12:46:30;6.93;;;3.45;;
29370;SDS011;16357;52.188;7.838;2023-07-22T12:48:57;3.53;;;2.85;;
29370;SDS011;16357;52.188;7.838;2023-07-22T12:51:23;3.78;;;3.05;;
29370;SDS011;16357;52.188;7.838;2023-07-22T12:53:50;4.60;;;3.22;;
29370;SDS011;16357;52.188;7.838;2023-07-22T12:56:17;3.90;;;3.00;;
29370;SDS011;16357;52.188;7.838;2023-07-22T12:58:44;4.70;;;3.22;;
29370;SDS011;16357;52.188;7.838;2023-07-22T13:01:11;3.25;;;2.95;;
29370;SDS011;16357;52.188;7.838;2023-07-22T13:03:38;3.65;;;3.15;;
29370;SDS011;16357;52.188;7.838;2023-07-22T13:06:04;4.45;;;3.30;;
29370;SDS011;16357;52.188;7.838;2023-07-22T13:08:31;4.18;;;3.33;;
29370;SDS011;16357;52.188;7.838;2023-07-22T13:10:58;4.72;;;3.17;;
29370;SDS011;16357;52.188;7.838;2023-07-22T13:13:24;4.22;;;3.33;;
29370;SDS011;16357;52.188;7.838;2023-07-22T13:15:51;4.15;;;3.35;;
29370;SDS011;16357;52.188;7.838;2023-07-22T13:18:18;4.03;;;3.15;;
29370;SDS011;16357;52.188;7.838;2023-07-22T13:20:45;4.00;;;3.33;;
29370;SDS011;16357;52.188;7.838;2023-07-22T13:23:11;3.88;;;2.97;;
29370;SDS011;16357;52.188;7.838;2023-07-22T13:25:38;4.00;;;3.08;;
29370;SDS011;16357;52.188;7.838;2023-07-22T13:28:05;4.40;;;3.05;;
29370;SDS011;16357;52.188;7.838;2023-07-22T13:30:31;5.82;;;3.60;;
29370;SDS011;16357;52.188;7.838;2023-07-22T13:32:58;3.40;;;3.05;;
29370;SDS011;16357;52.188;7.838;2023-07-22T13:35:24;3.55;;;3.10;;
29370;SDS011;16357;52.188;7.838;2023-07-22T13:37:51;5.32;;;3.75;;
29370;SDS011;16357;52.188;7.838;2023-07-22T13:40:17;4.45;;;3.20;;
29370;SDS011;16357;52.188;7.838;2023-07-22T13:42:44;3.70;;;2.95;;
29370;SDS011;16357;52.188;7.838;2023-07-22T13:45:11;8.27;;;5.35;;
29370;SDS011;16357;52.188;7.838;2023-07-22T13:47:38;9.00;;;4.63;;
29370;SDS011;16357;52.188;7.838;2023-07-22T13:50:04;3.90;;;3.17;;
29370;SDS011;16357;52.188;7.838;2023-07-22T13:52:31;5.00;;;3.63;;
29370;SDS011;16357;52.188;7.838;2023-07-22T13:54:57;5.50;;;3.40;;
29370;SDS011;16357;52.188;7.838;2023-07-22T13:57:24;6.03;;;3.55;;
29370;SDS011;16357;52.188;7.838;2023-07-22T13:59:50;4.40;;;3.20;;
29370;SDS011;16357;52.188;7.838;2023-07-22T14:02:17;6.53;;;3.22;;
29370;SDS011;16357;52.188;7.838;2023-07-22T14:04:43;5.35;;;3.10;;
29370;SDS011;16357;52.188;7.838;2023-07-22T14:07:10;5.85;;;3.03;;
29370;SDS011;16357;52.188;7.838;2023-07-22T14:09:37;3.67;;;2.78;;
29370;SDS011;16357;52.188;7.838;2023-07-22T14:12:03;5.32;;;2.60;;
29370;SDS011;16357;52.188;7.838;2023-07-22T14:14:30;4.25;;;2.72;;
29370;SDS011;16357;52.188;7.838;2023-07-22T14:16:57;4.30;;;2.92;;
29370;SDS011;16357;52.188;7.838;2023-07-22T14:19:23;3.55;;;2.80;;
29370;SDS011;16357;52.188;7.838;2023-07-22T14:21:50;4.57;;;3.20;;
29370;SDS011;16357;52.188;7.838;2023-07-22T14:24:17;3.17;;;2.60;;
29370;SDS011;16357;52.188;7.838;2023-07-22T14:26:43;4.80;;;2.85;;
29370;SDS011;16357;52.188;7.838;2023-07-22T14:29:10;3.70;;;3.00;;
29370;SDS011;16357;52.188;7.838;2023-07-22T14:31:36;3.85;;;2.65;;
29370;SDS011;16357;52.188;7.838;2023-07-22T14:34:03;5.28;;;3.00;;
29370;SDS011;16357;52.188;7.838;2023-07-22T14:36:29;3.35;;;2.65;;
29370;SDS011;16357;52.188;7.838;2023-07-22T14:38:56;3.97;;;2.97;;
29370;SDS011;16357;52.188;7.838;2023-07-22T14:41:24;2.95;;;2.50;;
29370;SDS011;16357;52.188;7.838;2023-07-22T14:43:51;5.32;;;2.92;;